WMT9GW EGGW-LIRF
Flight info
| Callsign | WMT9GW |
|---|---|
| Flight time | N/A |
| Altitude | 35000 |
| Route | RODNI1C RODNI N27 ICTAM Q63 CPT DCT MID UL612 OGULO DCT OKASI DCT OKEKO DCT MOU DCT MADIV DCT MOKIP DCT TUFTA DCT KOGAS DCT MEDAM DCT NITAM DCT MOGBO DCT ELB/N0449F360 DCT ELKAP ELKAP3A |
| Aircraft | A321/M-SDE3FGHIRWY/LB1 |
Departure
| Time | 2026-05-06 22:20 |
|---|---|
| Airport | London Luton Airport (EGGW) |
Arrival
| Time | N/A |
|---|---|
| Airport | Rome–Fiumicino Leonardo da Vinci International Airport (LIRF) |
| Time | Latitude | Longitude | Altitude | Speed | Heading |
|---|---|---|---|---|---|
| 2026-05-06 21:53 | 51.88144 | -0.37484 | 517 ft | 0 kts | 161° |
| 2026-05-06 22:12 | 51.88163 | -0.37494 | 517 ft | 4 kts | 161° |
| 2026-05-06 22:12 | 51.88183 | -0.37503 | 516 ft | 4 kts | 192° |
| 2026-05-06 22:12 | 51.88198 | -0.37481 | 516 ft | 4 kts | 249° |
| 2026-05-06 22:13 | 51.88207 | -0.37442 | 516 ft | 4 kts | 252° |
| 2026-05-06 22:13 | 51.88209 | -0.37429 | 516 ft | 0 kts | 252° |
| 2026-05-06 22:15 | 51.88205 | -0.37448 | 516 ft | 4 kts | 252° |
| 2026-05-06 22:16 | 51.88207 | -0.37520 | 516 ft | 10 kts | 282° |
| 2026-05-06 22:16 | 51.88177 | -0.37675 | 522 ft | 15 kts | 240° |
| 2026-05-06 22:16 | 51.88114 | -0.37816 | 523 ft | 18 kts | 220° |
| 2026-05-06 22:16 | 51.88010 | -0.37947 | 523 ft | 20 kts | 217° |
| 2026-05-06 22:17 | 51.87887 | -0.38011 | 523 ft | 19 kts | 167° |
| 2026-05-06 22:17 | 51.87788 | -0.37872 | 523 ft | 20 kts | 115° |
| 2026-05-06 22:17 | 51.87727 | -0.37662 | 520 ft | 23 kts | 115° |
| 2026-05-06 22:17 | 51.87634 | -0.37469 | 522 ft | 21 kts | 155° |
| 2026-05-06 22:18 | 51.87509 | -0.37533 | 522 ft | 20 kts | 247° |
| 2026-05-06 22:18 | 51.87469 | -0.37751 | 523 ft | 21 kts | 255° |
| 2026-05-06 22:18 | 51.87428 | -0.37978 | 524 ft | 19 kts | 250° |
| 2026-05-06 22:18 | 51.87341 | -0.38088 | 522 ft | 17 kts | 205° |
| 2026-05-06 22:19 | 51.87252 | -0.38091 | 524 ft | 8 kts | 110° |
| 2026-05-06 22:19 | 51.87269 | -0.37967 | 524 ft | 27 kts | 75° |
| 2026-05-06 22:19 | 51.87397 | -0.37240 | 521 ft | 103 kts | 75° |
| 2026-05-06 22:19 | 51.87637 | -0.35786 | 543 ft | 160 kts | 74° |
| 2026-05-06 22:20 | 51.87921 | -0.34034 | 1218 ft | 161 kts | 72° |
| 2026-05-06 22:20 | 51.88212 | -0.32300 | 2033 ft | 158 kts | 72° |
| 2026-05-06 22:20 | 51.88502 | -0.30629 | 2710 ft | 154 kts | 72° |
| 2026-05-06 22:20 | 51.88825 | -0.28877 | 3052 ft | 173 kts | 72° |
| 2026-05-06 22:21 | 51.89161 | -0.26882 | 3285 ft | 195 kts | 81° |
| 2026-05-06 22:21 | 51.88945 | -0.24594 | 3467 ft | 222 kts | 115° |
| 2026-05-06 22:21 | 51.87842 | -0.22754 | 3717 ft | 245 kts | 153° |
| 2026-05-06 22:21 | 51.86139 | -0.22325 | 4140 ft | 261 kts | 192° |
| 2026-05-06 22:22 | 51.84535 | -0.23697 | 4828 ft | 267 kts | 227° |
| 2026-05-06 22:22 | 51.83602 | -0.26286 | 5622 ft | 269 kts | 250° |
| 2026-05-06 22:22 | 51.83094 | -0.29216 | 6427 ft | 274 kts | 257° |
| 2026-05-06 22:22 | 51.82740 | -0.32267 | 7196 ft | 277 kts | 260° |
| 2026-05-06 22:23 | 51.82412 | -0.35339 | 7973 ft | 279 kts | 260° |
| 2026-05-06 22:23 | 51.82051 | -0.38430 | 8775 ft | 280 kts | 259° |
| 2026-05-06 22:23 | 51.81651 | -0.41523 | 9557 ft | 283 kts | 258° |
| 2026-05-06 22:23 | 51.81217 | -0.44638 | 10265 ft | 288 kts | 258° |
| 2026-05-06 22:24 | 51.80741 | -0.47916 | 10446 ft | 311 kts | 258° |
| 2026-05-06 22:24 | 51.80219 | -0.51431 | 10582 ft | 333 kts | 257° |
| 2026-05-06 22:24 | 51.79653 | -0.55187 | 10707 ft | 355 kts | 257° |
| 2026-05-06 22:24 | 51.79049 | -0.59140 | 11059 ft | 367 kts | 257° |
| 2026-05-06 22:25 | 51.78428 | -0.63157 | 11671 ft | 371 kts | 257° |
| 2026-05-06 22:25 | 51.77798 | -0.67222 | 12324 ft | 374 kts | 257° |
| 2026-05-06 22:25 | 51.77166 | -0.71315 | 13005 ft | 377 kts | 257° |
| 2026-05-06 22:25 | 51.76447 | -0.75383 | 13673 ft | 381 kts | 250° |
| 2026-05-06 22:26 | 51.75277 | -0.79268 | 14277 ft | 386 kts | 239° |
| 2026-05-06 22:26 | 51.73657 | -0.82746 | 14880 ft | 391 kts | 229° |
| 2026-05-06 22:26 | 51.71737 | -0.85872 | 15495 ft | 394 kts | 226° |
| 2026-05-06 22:26 | 51.69791 | -0.89002 | 16116 ft | 396 kts | 226° |
| 2026-05-06 22:27 | 51.67830 | -0.92151 | 16738 ft | 399 kts | 226° |
| 2026-05-06 22:27 | 51.65854 | -0.95317 | 17356 ft | 402 kts | 226° |
| 2026-05-06 22:27 | 51.63862 | -0.98507 | 17968 ft | 405 kts | 226° |
| 2026-05-06 22:27 | 51.61856 | -1.01725 | 18513 ft | 408 kts | 226° |
| 2026-05-06 22:28 | 51.59840 | -1.04957 | 19007 ft | 411 kts | 226° |
| 2026-05-06 22:28 | 51.57808 | -1.08210 | 19478 ft | 414 kts | 226° |
| 2026-05-06 22:28 | 51.55757 | -1.11483 | 19963 ft | 416 kts | 226° |
| 2026-05-06 22:28 | 51.53716 | -1.14729 | 20442 ft | 419 kts | 225° |
| 2026-05-06 22:29 | 51.51552 | -1.17884 | 20894 ft | 423 kts | 216° |
| 2026-05-06 22:29 | 51.48922 | -1.20016 | 21329 ft | 428 kts | 198° |
| 2026-05-06 22:29 | 51.45969 | -1.20736 | 21754 ft | 433 kts | 180° |
| 2026-05-06 22:29 | 51.42994 | -1.19924 | 22170 ft | 439 kts | 161° |
| 2026-05-06 22:30 | 51.40289 | -1.17614 | 22572 ft | 444 kts | 142° |
| 2026-05-06 22:30 | 51.38176 | -1.14013 | 22966 ft | 449 kts | 123° |
| 2026-05-06 22:30 | 51.36718 | -1.09575 | 23369 ft | 452 kts | 117° |
| 2026-05-06 22:30 | 51.35161 | -1.05195 | 23749 ft | 454 kts | 124° |
| 2026-05-06 22:31 | 51.33253 | -1.01155 | 24087 ft | 456 kts | 132° |
| 2026-05-06 22:31 | 51.30981 | -0.97620 | 24456 ft | 457 kts | 140° |
| 2026-05-06 22:31 | 51.28575 | -0.94286 | 24810 ft | 459 kts | 140° |
| 2026-05-06 22:31 | 51.26151 | -0.90946 | 25155 ft | 461 kts | 140° |
| 2026-05-06 22:32 | 51.23745 | -0.87648 | 25482 ft | 463 kts | 141° |
| 2026-05-06 22:32 | 51.21261 | -0.84244 | 25829 ft | 466 kts | 141° |
| 2026-05-06 22:32 | 51.18832 | -0.80910 | 26170 ft | 468 kts | 140° |
| 2026-05-06 22:32 | 51.16338 | -0.77482 | 26519 ft | 470 kts | 140° |
| 2026-05-06 22:33 | 51.13883 | -0.74109 | 26853 ft | 472 kts | 141° |
| 2026-05-06 22:33 | 51.11387 | -0.70689 | 27179 ft | 474 kts | 141° |
| 2026-05-06 22:33 | 51.08885 | -0.67268 | 27612 ft | 474 kts | 141° |
| 2026-05-06 22:33 | 51.06423 | -0.63908 | 28072 ft | 472 kts | 141° |
| 2026-05-06 22:34 | 51.03799 | -0.60797 | 28516 ft | 470 kts | 148° |
| 2026-05-06 22:34 | 51.01088 | -0.57899 | 28951 ft | 469 kts | 148° |
| 2026-05-06 22:34 | 50.98390 | -0.55013 | 29417 ft | 468 kts | 148° |
| 2026-05-06 22:34 | 50.95689 | -0.52127 | 29876 ft | 467 kts | 148° |
| 2026-05-06 22:35 | 50.92996 | -0.49251 | 30300 ft | 466 kts | 148° |
| 2026-05-06 22:35 | 50.90307 | -0.46389 | 30672 ft | 465 kts | 148° |
| 2026-05-06 22:35 | 50.87622 | -0.43537 | 31030 ft | 465 kts | 148° |
| 2026-05-06 22:35 | 50.84940 | -0.40695 | 31407 ft | 464 kts | 148° |
| 2026-05-06 22:36 | 50.82258 | -0.37861 | 31780 ft | 463 kts | 148° |
| 2026-05-06 22:36 | 50.79580 | -0.35039 | 32146 ft | 462 kts | 148° |
| 2026-05-06 22:36 | 50.76901 | -0.32215 | 32503 ft | 462 kts | 148° |
| 2026-05-06 22:36 | 50.74234 | -0.29401 | 32875 ft | 461 kts | 148° |
| 2026-05-06 22:37 | 50.71566 | -0.26589 | 33216 ft | 461 kts | 148° |
| 2026-05-06 22:37 | 50.68901 | -0.23784 | 33565 ft | 460 kts | 148° |
| 2026-05-06 22:37 | 50.66244 | -0.20989 | 33906 ft | 459 kts | 148° |
| 2026-05-06 22:37 | 50.63586 | -0.18200 | 34205 ft | 459 kts | 148° |
| 2026-05-06 22:38 | 50.60924 | -0.15415 | 34478 ft | 459 kts | 148° |
| 2026-05-06 22:38 | 50.58302 | -0.12679 | 34734 ft | 458 kts | 148° |
| 2026-05-06 22:38 | 50.55646 | -0.09910 | 34959 ft | 459 kts | 148° |
| 2026-05-06 22:38 | 50.52981 | -0.07137 | 35033 ft | 459 kts | 148° |
| 2026-05-06 22:39 | 50.47657 | -0.01598 | 35025 ft | 459 kts | 148° |
| 2026-05-06 22:39 | 50.42336 | 0.03923 | 35026 ft | 458 kts | 148° |
| 2026-05-06 22:40 | 50.37011 | 0.09426 | 35025 ft | 458 kts | 148° |
| 2026-05-06 22:40 | 50.31685 | 0.14923 | 35021 ft | 459 kts | 148° |
| 2026-05-06 22:41 | 50.23694 | 0.23148 | 35021 ft | 459 kts | 148° |
| 2026-05-06 22:42 | 50.18360 | 0.28613 | 35016 ft | 458 kts | 148° |
| 2026-05-06 22:42 | 50.13029 | 0.34077 | 35023 ft | 458 kts | 148° |
| 2026-05-06 22:43 | 50.07711 | 0.39542 | 35027 ft | 458 kts | 148° |
| 2026-05-06 22:43 | 50.02394 | 0.45007 | 35023 ft | 458 kts | 148° |
| 2026-05-06 22:44 | 49.97062 | 0.50441 | 35024 ft | 458 kts | 148° |
| 2026-05-06 22:44 | 49.91720 | 0.55864 | 35024 ft | 459 kts | 147° |
| 2026-05-06 22:45 | 49.86416 | 0.61250 | 35024 ft | 459 kts | 146° |
| 2026-05-06 22:45 | 49.81401 | 0.67380 | 35024 ft | 459 kts | 141° |
| 2026-05-06 22:46 | 49.76447 | 0.73625 | 35024 ft | 459 kts | 141° |
| 2026-05-06 22:46 | 49.71485 | 0.79848 | 35026 ft | 459 kts | 141° |
| 2026-05-06 22:47 | 49.66513 | 0.86057 | 35023 ft | 460 kts | 141° |
| 2026-05-06 22:47 | 49.61543 | 0.92268 | 35025 ft | 460 kts | 141° |
| 2026-05-06 22:48 | 49.56563 | 0.98470 | 35028 ft | 460 kts | 141° |
| 2026-05-06 22:48 | 49.51577 | 1.04650 | 35025 ft | 461 kts | 141° |
| 2026-05-06 22:49 | 49.46571 | 1.10835 | 35029 ft | 462 kts | 141° |
| 2026-05-06 22:49 | 49.41562 | 1.17014 | 35029 ft | 462 kts | 141° |
| 2026-05-06 22:50 | 49.36562 | 1.23188 | 35029 ft | 462 kts | 141° |
| 2026-05-06 22:50 | 49.31589 | 1.29321 | 35031 ft | 462 kts | 141° |
| 2026-05-06 22:51 | 49.26573 | 1.35467 | 35029 ft | 462 kts | 141° |
| 2026-05-06 22:51 | 49.21544 | 1.41609 | 35027 ft | 463 kts | 141° |
| 2026-05-06 22:52 | 49.16504 | 1.47739 | 35024 ft | 463 kts | 141° |
| 2026-05-06 22:52 | 49.11460 | 1.53856 | 35024 ft | 463 kts | 141° |
| 2026-05-06 22:53 | 49.06417 | 1.59978 | 35010 ft | 463 kts | 141° |
| 2026-05-06 22:53 | 49.01374 | 1.66101 | 35021 ft | 463 kts | 141° |
| 2026-05-06 22:54 | 48.96324 | 1.72188 | 35023 ft | 463 kts | 141° |
| 2026-05-06 22:54 | 48.91269 | 1.78259 | 35015 ft | 463 kts | 141° |
| 2026-05-06 22:55 | 48.86219 | 1.84312 | 35016 ft | 462 kts | 141° |
| 2026-05-06 22:55 | 48.81160 | 1.90340 | 35005 ft | 462 kts | 142° |
| 2026-05-06 22:56 | 48.76106 | 1.96370 | 35001 ft | 462 kts | 141° |
| 2026-05-06 22:56 | 48.71045 | 2.02386 | 35002 ft | 462 kts | 142° |
| 2026-05-06 22:57 | 48.65986 | 2.08390 | 35002 ft | 462 kts | 142° |
| 2026-05-06 22:57 | 48.60917 | 2.14385 | 35003 ft | 463 kts | 142° |
| 2026-05-06 22:58 | 48.55952 | 2.20552 | 35003 ft | 461 kts | 134° |
| 2026-05-06 22:58 | 48.51447 | 2.27448 | 35008 ft | 461 kts | 134° |
| 2026-05-06 22:59 | 48.47688 | 2.33157 | 35008 ft | 461 kts | 135° |
| 2026-05-06 22:59 | 48.42419 | 2.41109 | 35010 ft | 461 kts | 135° |
| 2026-05-06 23:00 | 48.37891 | 2.47949 | 35009 ft | 464 kts | 135° |
| 2026-05-06 23:00 | 48.33272 | 2.54898 | 35013 ft | 475 kts | 135° |
| 2026-05-06 23:01 | 48.29278 | 2.60669 | 35006 ft | 482 kts | 141° |
| 2026-05-06 23:01 | 48.23572 | 2.65759 | 34999 ft | 467 kts | 156° |
| 2026-05-06 23:02 | 48.17765 | 2.69934 | 35002 ft | 461 kts | 153° |
| 2026-05-06 23:02 | 48.12136 | 2.74540 | 35001 ft | 461 kts | 151° |
| 2026-05-06 23:03 | 48.06458 | 2.78998 | 35003 ft | 460 kts | 156° |
| 2026-05-06 23:03 | 48.00580 | 2.82802 | 35006 ft | 460 kts | 158° |
| 2026-05-06 23:04 | 47.94673 | 2.86509 | 35003 ft | 461 kts | 158° |
| 2026-05-06 23:04 | 47.88762 | 2.90220 | 35003 ft | 461 kts | 158° |
| 2026-05-06 23:05 | 47.82858 | 2.93947 | 35004 ft | 461 kts | 158° |
| 2026-05-06 23:05 | 47.76957 | 2.97669 | 35001 ft | 460 kts | 158° |
| 2026-05-06 23:06 | 47.71062 | 3.01386 | 35003 ft | 461 kts | 158° |
| 2026-05-06 23:06 | 47.65158 | 3.05098 | 35002 ft | 461 kts | 158° |
| 2026-05-06 23:07 | 47.59254 | 3.08796 | 35002 ft | 461 kts | 158° |
| 2026-05-06 23:07 | 47.53384 | 3.12453 | 35001 ft | 461 kts | 158° |
| 2026-05-06 23:08 | 47.47472 | 3.16130 | 35002 ft | 461 kts | 158° |
| 2026-05-06 23:08 | 47.41564 | 3.19808 | 35005 ft | 461 kts | 158° |
| 2026-05-06 23:09 | 47.35646 | 3.23483 | 35010 ft | 461 kts | 158° |
| 2026-05-06 23:09 | 47.29728 | 3.27142 | 35008 ft | 461 kts | 158° |
| 2026-05-06 23:10 | 47.23806 | 3.30798 | 35012 ft | 461 kts | 158° |
| 2026-05-06 23:10 | 47.17894 | 3.34434 | 35009 ft | 460 kts | 158° |
| 2026-05-06 23:11 | 47.11985 | 3.38054 | 35008 ft | 460 kts | 158° |
| 2026-05-06 23:11 | 47.06073 | 3.41669 | 35010 ft | 461 kts | 158° |
| 2026-05-06 23:12 | 47.00158 | 3.45289 | 35011 ft | 461 kts | 158° |
| 2026-05-06 23:12 | 46.94244 | 3.48900 | 35010 ft | 460 kts | 158° |
| 2026-05-06 23:13 | 46.88328 | 3.52496 | 35014 ft | 461 kts | 159° |
| 2026-05-06 23:13 | 46.82403 | 3.56084 | 35014 ft | 461 kts | 159° |
| 2026-05-06 23:14 | 46.76549 | 3.59914 | 35012 ft | 462 kts | 149° |
| 2026-05-06 23:14 | 46.71762 | 3.66018 | 35013 ft | 464 kts | 128° |
| 2026-05-06 23:14 | 46.70019 | 3.69987 | 35012 ft | 465 kts | 116° |
| 2026-05-06 23:15 | 46.68819 | 3.74357 | 35013 ft | 466 kts | 105° |
| 2026-05-06 23:15 | 46.67257 | 3.83518 | 35011 ft | 466 kts | 104° |
| 2026-05-06 23:16 | 46.65680 | 3.92684 | 35011 ft | 467 kts | 104° |
| 2026-05-06 23:16 | 46.64097 | 4.01839 | 35006 ft | 467 kts | 104° |
| 2026-05-06 23:17 | 46.62505 | 4.10999 | 35009 ft | 467 kts | 104° |
| 2026-05-06 23:17 | 46.60903 | 4.20156 | 35007 ft | 467 kts | 104° |
| 2026-05-06 23:18 | 46.59299 | 4.29303 | 35006 ft | 467 kts | 104° |
| 2026-05-06 23:18 | 46.57684 | 4.38470 | 35005 ft | 467 kts | 105° |
| 2026-05-06 23:19 | 46.56059 | 4.47619 | 35007 ft | 467 kts | 105° |
| 2026-05-06 23:19 | 46.54445 | 4.56699 | 35002 ft | 467 kts | 105° |
| 2026-05-06 23:20 | 46.52813 | 4.65832 | 35003 ft | 467 kts | 105° |
| 2026-05-06 23:20 | 46.51173 | 4.74958 | 35000 ft | 467 kts | 105° |
| 2026-05-06 23:20 | 46.50061 | 4.79367 | 34992 ft | 465 kts | 120° |
| 2026-05-06 23:21 | 46.48171 | 4.83144 | 35004 ft | 462 kts | 137° |
| 2026-05-06 23:21 | 46.45645 | 4.85959 | 34993 ft | 458 kts | 154° |
| 2026-05-06 23:21 | 46.42697 | 4.87647 | 34724 ft | 454 kts | 170° |
| 2026-05-06 23:21 | 46.39585 | 4.88103 | 34383 ft | 450 kts | 181° |
| 2026-05-06 23:22 | 46.36442 | 4.88082 | 34029 ft | 451 kts | 182° |
| 2026-05-06 23:22 | 46.33304 | 4.88014 | 33627 ft | 452 kts | 182° |
| 2026-05-06 23:22 | 46.30152 | 4.87928 | 33219 ft | 453 kts | 182° |
| 2026-05-06 23:22 | 46.26999 | 4.87828 | 32813 ft | 454 kts | 182° |
| 2026-05-06 23:23 | 46.23844 | 4.87718 | 32409 ft | 454 kts | 183° |
| 2026-05-06 23:23 | 46.20680 | 4.87552 | 32016 ft | 454 kts | 187° |
| 2026-05-06 23:23 | 46.17633 | 4.86492 | 31609 ft | 451 kts | 204° |
| 2026-05-06 23:23 | 46.14932 | 4.84226 | 31103 ft | 450 kts | 220° |
| 2026-05-06 23:24 | 46.12811 | 4.80925 | 30612 ft | 449 kts | 237° |
| 2026-05-06 23:24 | 46.11456 | 4.76886 | 30107 ft | 451 kts | 254° |
| 2026-05-06 23:24 | 46.10970 | 4.72416 | 29547 ft | 453 kts | 271° |
| 2026-05-06 23:24 | 46.11006 | 4.67859 | 28960 ft | 457 kts | 273° |
| 2026-05-06 23:25 | 46.11387 | 4.63316 | 28389 ft | 456 kts | 286° |
| 2026-05-06 23:25 | 46.12516 | 4.59134 | 27852 ft | 456 kts | 300° |
| 2026-05-06 23:25 | 46.14390 | 4.55456 | 27311 ft | 455 kts | 315° |
| 2026-05-06 23:25 | 46.16869 | 4.52641 | 26781 ft | 455 kts | 330° |
| 2026-05-06 23:26 | 46.19776 | 4.50886 | 26253 ft | 455 kts | 346° |
| 2026-05-06 23:26 | 46.22910 | 4.50304 | 25740 ft | 455 kts | 0° |
| 2026-05-06 23:26 | 46.26052 | 4.50934 | 25240 ft | 459 kts | 15° |
| 2026-05-06 23:26 | 46.28986 | 4.52757 | 24743 ft | 462 kts | 31° |
| 2026-05-06 23:27 | 46.31486 | 4.55678 | 24259 ft | 465 kts | 46° |
| 2026-05-06 23:27 | 46.33580 | 4.59256 | 23775 ft | 465 kts | 49° |
| 2026-05-06 23:27 | 46.35636 | 4.62852 | 23251 ft | 463 kts | 49° |
| 2026-05-06 23:27 | 46.37682 | 4.66432 | 22696 ft | 460 kts | 49° |
| 2026-05-06 23:28 | 46.39721 | 4.69995 | 22147 ft | 458 kts | 49° |
| 2026-05-06 23:28 | 46.41749 | 4.73542 | 21617 ft | 455 kts | 49° |
| 2026-05-06 23:28 | 46.43759 | 4.77064 | 21094 ft | 453 kts | 49° |
| 2026-05-06 23:28 | 46.45761 | 4.80578 | 20585 ft | 450 kts | 49° |
| 2026-05-06 23:29 | 46.47750 | 4.84067 | 20117 ft | 448 kts | 50° |
| 2026-05-06 23:29 | 46.49731 | 4.87547 | 19954 ft | 447 kts | 50° |
| 2026-05-06 23:29 | 46.51706 | 4.91024 | 20004 ft | 448 kts | 50° |
| 2026-05-06 23:29 | 46.53689 | 4.94521 | 19997 ft | 448 kts | 50° |
| 2026-05-06 23:30 | 46.55640 | 4.97969 | 19988 ft | 448 kts | 50° |
| 2026-05-06 23:30 | 46.57614 | 5.01460 | 19993 ft | 448 kts | 50° |
| 2026-05-06 23:30 | 46.59597 | 5.04971 | 20002 ft | 448 kts | 50° |
| 2026-05-06 23:30 | 46.61568 | 5.08471 | 19993 ft | 448 kts | 51° |
| 2026-05-06 23:31 | 46.63288 | 5.12254 | 19829 ft | 450 kts | 60° |
| 2026-05-06 23:31 | 46.64521 | 5.16410 | 19253 ft | 445 kts | 72° |
| 2026-05-06 23:31 | 46.65216 | 5.20788 | 18768 ft | 444 kts | 82° |
| 2026-05-06 23:31 | 46.65410 | 5.25271 | 18289 ft | 443 kts | 91° |
| 2026-05-06 23:32 | 46.65108 | 5.29709 | 17743 ft | 441 kts | 101° |
| 2026-05-06 23:32 | 46.64468 | 5.34058 | 17207 ft | 438 kts | 102° |
| 2026-05-06 23:32 | 46.63816 | 5.38361 | 16686 ft | 435 kts | 102° |
| 2026-05-06 23:32 | 46.63163 | 5.42654 | 16158 ft | 432 kts | 103° |
| 2026-05-06 23:33 | 46.62515 | 5.46896 | 15653 ft | 429 kts | 103° |
| 2026-05-06 23:33 | 46.61868 | 5.51115 | 15142 ft | 426 kts | 103° |
| 2026-05-06 23:33 | 46.61220 | 5.55305 | 14658 ft | 423 kts | 103° |
| 2026-05-06 23:33 | 46.60572 | 5.59459 | 14166 ft | 420 kts | 103° |
| 2026-05-06 23:34 | 46.59923 | 5.63583 | 13672 ft | 417 kts | 103° |
| 2026-05-06 23:34 | 46.59275 | 5.67681 | 13134 ft | 415 kts | 103° |
| 2026-05-06 23:34 | 46.58631 | 5.71752 | 12685 ft | 413 kts | 103° |
| 2026-05-06 23:34 | 46.57810 | 5.75741 | 12279 ft | 410 kts | 112° |
| 2026-05-06 23:35 | 46.56550 | 5.79436 | 11897 ft | 407 kts | 122° |
| 2026-05-06 23:35 | 46.54897 | 5.82736 | 11519 ft | 403 kts | 133° |
| 2026-05-06 23:35 | 46.52903 | 5.85565 | 11137 ft | 399 kts | 142° |
| 2026-05-06 23:35 | 46.50701 | 5.87885 | 10765 ft | 387 kts | 147° |
| 2026-05-06 23:36 | 46.48514 | 5.90074 | 10398 ft | 375 kts | 147° |
| 2026-05-06 23:36 | 46.46395 | 5.92200 | 10029 ft | 365 kts | 148° |